< Cyclone 198101 1981 Season Cyclone 198104 >
Cyclone 198103 (CAROL)
General InformationTrack Information on Google Maps || ResourceGoogle EarthGE AnimationAtom FeedGeoJSON
Detalied Best Track (Time Zone = UTC)
Year Month Day Hour Lat. Long. Pressure (hPa) Wind (kt) Class Image Chart
1980 12 12 00 -10.7 122.3 1006 0 0 -- --
1980 12 12 06 -10.8 121.7 1005 0 0 -- --
1980 12 12 12 -11.0 120.9 1004 0 0 -- --
1980 12 12 18 -11.2 120.1 1003 0 0 -- --
1980 12 13 00 -11.7 119.2 1001 0 0 -- --
1980 12 13 06 -12.3 118.6 996 0 0 -- --
1980 12 13 12 -12.8 118.2 990 0 0 -- --
1980 12 13 18 -13.3 117.8 995 0 0 -- --
1980 12 14 00 -13.6 117.4 980 0 0 -- --
1980 12 14 06 -13.7 116.7 977 0 0 -- --
1980 12 14 12 -13.6 115.7 974 0 0 -- --
1980 12 14 18 -13.6 114.7 971 0 0 -- --
1980 12 14 21 -13.7 114.3 968 0 0 -- --
1980 12 15 00 -13.9 113.8 965 0 0 -- --
1980 12 15 06 -14.2 112.7 963 0 0 -- --
1980 12 15 12 -14.4 111.5 961 0 0 -- --
1980 12 15 18 -14.5 110.2 958 0 0 -- --
1980 12 16 00 -14.5 108.9 955 0 0 -- --
1980 12 16 06 -15.0 107.9 952 0 0 -- --
1980 12 16 12 -15.7 107.0 948 0 0 -- --
1980 12 16 18 -16.4 106.0 944 0 0 -- --
1980 12 17 00 -16.8 105.0 940 0 0 -- --
1980 12 17 06 -16.8 104.0 947 0 0 -- --
1980 12 17 12 -16.6 103.1 954 0 0 -- --
1980 12 17 18 -16.5 102.7 962 0 0 -- --
1980 12 18 00 -16.5 102.3 970 0 0 -- --
1980 12 18 06 -16.6 102.0 975 0 0 -- --
1980 12 18 12 -16.6 101.9 979 0 0 -- --
1980 12 18 18 -16.7 101.7 982 0 0 -- --
1980 12 19 00 -17.0 101.6 985 0 0 -- --
1980 12 19 06 -17.3 101.3 985 0 0 -- --
1980 12 19 12 -17.5 101.0 986 0 0 -- --
1980 12 19 18 -17.6 100.6 987 0 0 -- --
1980 12 20 00 -17.8 100.2 988 0 0 -- --
1980 12 20 06 -18.0 99.7 988 0 0 -- --
1980 12 20 12 -18.1 99.0 989 0 0 -- --
1980 12 20 18 -18.0 98.1 989 0 0 -- --
1980 12 20 21 -17.7 97.5 990 0 0 -- --
1980 12 21 00 -17.4 97.0 990 0 0 -- --
1980 12 21 06 -16.5 96.2 991 0 0 -- --
1980 12 21 12 -15.6 95.2 991 0 0 -- --
1980 12 21 18 -14.8 93.8 992 0 0 -- --
1980 12 21 21 -14.7 93.0 993 0 0 -- --
1980 12 22 00 -14.9 92.1 994 0 0 -- --
1980 12 22 06 -15.3 91.4 996 0 0 -- --
1980 12 22 12 -16.1 89.9 997 0 0 -- --
< Cyclone 198101 1981 Season Cyclone 198104 >

Help